sensor_id;sensor_type;location;lat;lon;timestamp;P1;durP1;ratioP1;P2;durP2;ratioP2
19089;SDS011;9677;50.656;13.064;2023-08-06T00:01:34;9.23;;;8.43;;
19089;SDS011;9677;50.656;13.064;2023-08-06T00:04:02;9.10;;;8.30;;
19089;SDS011;9677;50.656;13.064;2023-08-06T00:06:31;10.00;;;9.03;;
19089;SDS011;9677;50.656;13.064;2023-08-06T00:08:59;9.27;;;8.47;;
19089;SDS011;9677;50.656;13.064;2023-08-06T00:11:27;9.10;;;8.30;;
19089;SDS011;9677;50.656;13.064;2023-08-06T00:13:57;9.20;;;8.40;;
19089;SDS011;9677;50.656;13.064;2023-08-06T00:16:25;9.30;;;8.50;;
19089;SDS011;9677;50.656;13.064;2023-08-06T00:18:54;9.10;;;8.30;;
19089;SDS011;9677;50.656;13.064;2023-08-06T00:21:22;9.50;;;8.60;;
19089;SDS011;9677;50.656;13.064;2023-08-06T00:23:50;9.20;;;8.40;;
19089;SDS011;9677;50.656;13.064;2023-08-06T00:26:18;9.13;;;8.33;;
19089;SDS011;9677;50.656;13.064;2023-08-06T00:28:47;9.40;;;8.50;;
19089;SDS011;9677;50.656;13.064;2023-08-06T00:31:16;9.57;;;8.67;;
19089;SDS011;9677;50.656;13.064;2023-08-06T00:33:44;9.43;;;8.50;;
19089;SDS011;9677;50.656;13.064;2023-08-06T00:36:13;9.40;;;8.50;;
19089;SDS011;9677;50.656;13.064;2023-08-06T00:38:41;9.30;;;8.50;;
19089;SDS011;9677;50.656;13.064;2023-08-06T00:41:10;9.50;;;8.60;;
19089;SDS011;9677;50.656;13.064;2023-08-06T00:43:38;9.50;;;8.70;;
19089;SDS011;9677;50.656;13.064;2023-08-06T00:46:06;9.37;;;8.57;;
19089;SDS011;9677;50.656;13.064;2023-08-06T00:48:36;9.40;;;8.50;;
19089;SDS011;9677;50.656;13.064;2023-08-06T00:51:04;9.50;;;8.60;;
19089;SDS011;9677;50.656;13.064;2023-08-06T00:53:33;9.30;;;8.50;;
19089;SDS011;9677;50.656;13.064;2023-08-06T00:56:02;9.30;;;8.40;;
19089;SDS011;9677;50.656;13.064;2023-08-06T00:58:31;9.80;;;8.80;;
19089;SDS011;9677;50.656;13.064;2023-08-06T01:00:59;9.60;;;8.60;;
19089;SDS011;9677;50.656;13.064;2023-08-06T01:03:28;9.13;;;8.33;;
19089;SDS011;9677;50.656;13.064;2023-08-06T01:05:57;9.40;;;8.50;;
19089;SDS011;9677;50.656;13.064;2023-08-06T01:08:28;9.40;;;8.50;;
19089;SDS011;9677;50.656;13.064;2023-08-06T01:11:21;9.37;;;8.57;;
19089;SDS011;9677;50.656;13.064;2023-08-06T01:13:59;9.33;;;8.53;;
19089;SDS011;9677;50.656;13.064;2023-08-06T01:16:35;9.50;;;8.60;;
19089;SDS011;9677;50.656;13.064;2023-08-06T01:19:14;9.47;;;8.57;;
19089;SDS011;9677;50.656;13.064;2023-08-06T01:21:45;9.63;;;8.73;;
19089;SDS011;9677;50.656;13.064;2023-08-06T01:24:14;9.73;;;8.83;;
19089;SDS011;9677;50.656;13.064;2023-08-06T01:26:44;9.40;;;8.60;;
19089;SDS011;9677;50.656;13.064;2023-08-06T01:29:22;9.30;;;8.40;;
19089;SDS011;9677;50.656;13.064;2023-08-06T01:31:55;9.40;;;8.60;;
19089;SDS011;9677;50.656;13.064;2023-08-06T01:34:25;9.30;;;8.40;;
19089;SDS011;9677;50.656;13.064;2023-08-06T01:37:00;9.30;;;8.40;;
19089;SDS011;9677;50.656;13.064;2023-08-06T01:39:31;9.50;;;8.43;;
19089;SDS011;9677;50.656;13.064;2023-08-06T01:42:03;9.20;;;8.40;;
19089;SDS011;9677;50.656;13.064;2023-08-06T01:44:31;9.37;;;8.47;;
19089;SDS011;9677;50.656;13.064;2023-08-06T01:47:00;9.20;;;8.40;;
19089;SDS011;9677;50.656;13.064;2023-08-06T01:49:28;9.07;;;8.27;;
19089;SDS011;9677;50.656;13.064;2023-08-06T01:51:56;9.50;;;8.70;;
19089;SDS011;9677;50.656;13.064;2023-08-06T01:54:26;9.20;;;8.40;;
19089;SDS011;9677;50.656;13.064;2023-08-06T01:56:54;9.30;;;8.50;;
19089;SDS011;9677;50.656;13.064;2023-08-06T01:59:24;10.63;;;8.83;;
19089;SDS011;9677;50.656;13.064;2023-08-06T02:01:53;9.50;;;8.60;;
19089;SDS011;9677;50.656;13.064;2023-08-06T02:04:21;9.40;;;8.50;;
19089;SDS011;9677;50.656;13.064;2023-08-06T02:06:49;9.43;;;8.60;;
19089;SDS011;9677;50.656;13.064;2023-08-06T02:09:18;9.53;;;8.63;;
19089;SDS011;9677;50.656;13.064;2023-08-06T02:11:47;9.20;;;8.40;;
19089;SDS011;9677;50.656;13.064;2023-08-06T02:14:16;9.47;;;8.57;;
19089;SDS011;9677;50.656;13.064;2023-08-06T02:16:44;9.20;;;8.40;;
19089;SDS011;9677;50.656;13.064;2023-08-06T02:19:12;9.10;;;8.30;;
19089;SDS011;9677;50.656;13.064;2023-08-06T02:21:40;9.17;;;8.37;;
19089;SDS011;9677;50.656;13.064;2023-08-06T02:24:09;9.37;;;8.57;;
19089;SDS011;9677;50.656;13.064;2023-08-06T02:26:37;9.20;;;8.40;;
19089;SDS011;9677;50.656;13.064;2023-08-06T02:29:07;9.40;;;8.60;;
19089;SDS011;9677;50.656;13.064;2023-08-06T02:31:35;10.30;;;8.70;;
19089;SDS011;9677;50.656;13.064;2023-08-06T02:34:04;9.30;;;8.50;;
19089;SDS011;9677;50.656;13.064;2023-08-06T02:36:33;9.50;;;8.60;;
19089;SDS011;9677;50.656;13.064;2023-08-06T02:39:01;9.20;;;8.30;;
19089;SDS011;9677;50.656;13.064;2023-08-06T02:41:29;9.50;;;8.50;;
19089;SDS011;9677;50.656;13.064;2023-08-06T02:43:57;9.60;;;8.70;;
19089;SDS011;9677;50.656;13.064;2023-08-06T02:46:27;9.33;;;8.50;;
19089;SDS011;9677;50.656;13.064;2023-08-06T02:48:55;9.40;;;8.50;;
19089;SDS011;9677;50.656;13.064;2023-08-06T02:51:23;9.60;;;8.70;;
19089;SDS011;9677;50.656;13.064;2023-08-06T02:53:52;9.70;;;8.80;;
19089;SDS011;9677;50.656;13.064;2023-08-06T02:56:20;9.50;;;8.60;;
19089;SDS011;9677;50.656;13.064;2023-08-06T02:59:01;9.60;;;8.70;;
19089;SDS011;9677;50.656;13.064;2023-08-06T03:01:53;9.80;;;8.90;;
19089;SDS011;9677;50.656;13.064;2023-08-06T03:04:29;9.70;;;8.80;;
19089;SDS011;9677;50.656;13.064;2023-08-06T03:06:58;9.13;;;8.33;;
19089;SDS011;9677;50.656;13.064;2023-08-06T03:09:34;9.37;;;8.57;;
19089;SDS011;9677;50.656;13.064;2023-08-06T03:12:02;9.60;;;8.70;;
19089;SDS011;9677;50.656;13.064;2023-08-06T03:14:31;9.13;;;8.33;;
19089;SDS011;9677;50.656;13.064;2023-08-06T03:17:02;9.70;;;8.80;;
19089;SDS011;9677;50.656;13.064;2023-08-06T03:19:31;9.30;;;8.50;;
19089;SDS011;9677;50.656;13.064;2023-08-06T03:21:59;9.60;;;8.70;;
19089;SDS011;9677;50.656;13.064;2023-08-06T03:24:29;9.47;;;8.57;;
19089;SDS011;9677;50.656;13.064;2023-08-06T03:26:58;9.57;;;8.67;;
19089;SDS011;9677;50.656;13.064;2023-08-06T03:29:26;9.80;;;8.90;;
19089;SDS011;9677;50.656;13.064;2023-08-06T03:31:58;9.53;;;8.63;;
19089;SDS011;9677;50.656;13.064;2023-08-06T03:34:28;9.67;;;8.77;;
19089;SDS011;9677;50.656;13.064;2023-08-06T03:36:57;9.77;;;8.87;;
19089;SDS011;9677;50.656;13.064;2023-08-06T03:39:26;9.70;;;8.80;;
19089;SDS011;9677;50.656;13.064;2023-08-06T03:41:54;9.70;;;8.80;;
19089;SDS011;9677;50.656;13.064;2023-08-06T03:44:24;9.80;;;8.90;;
19089;SDS011;9677;50.656;13.064;2023-08-06T03:46:53;9.73;;;8.83;;
19089;SDS011;9677;50.656;13.064;2023-08-06T03:49:21;9.40;;;8.60;;
19089;SDS011;9677;50.656;13.064;2023-08-06T03:51:51;9.60;;;8.70;;
19089;SDS011;9677;50.656;13.064;2023-08-06T03:54:19;9.50;;;8.60;;
19089;SDS011;9677;50.656;13.064;2023-08-06T03:56:48;9.60;;;8.70;;
19089;SDS011;9677;50.656;13.064;2023-08-06T03:59:16;9.63;;;8.73;;
19089;SDS011;9677;50.656;13.064;2023-08-06T04:01:46;9.50;;;8.60;;
19089;SDS011;9677;50.656;13.064;2023-08-06T04:04:14;9.50;;;8.60;;
19089;SDS011;9677;50.656;13.064;2023-08-06T04:06:43;9.50;;;8.60;;
19089;SDS011;9677;50.656;13.064;2023-08-06T04:09:14;9.07;;;8.27;;
19089;SDS011;9677;50.656;13.064;2023-08-06T04:11:42;9.60;;;8.70;;
19089;SDS011;9677;50.656;13.064;2023-08-06T04:14:10;9.70;;;8.80;;
19089;SDS011;9677;50.656;13.064;2023-08-06T04:16:38;10.10;;;9.10;;
19089;SDS011;9677;50.656;13.064;2023-08-06T04:19:07;9.90;;;9.00;;
19089;SDS011;9677;50.656;13.064;2023-08-06T04:21:35;9.93;;;9.03;;
19089;SDS011;9677;50.656;13.064;2023-08-06T04:24:03;9.70;;;8.80;;
19089;SDS011;9677;50.656;13.064;2023-08-06T04:26:33;9.70;;;8.80;;
19089;SDS011;9677;50.656;13.064;2023-08-06T04:29:01;9.53;;;8.70;;
19089;SDS011;9677;50.656;13.064;2023-08-06T04:31:30;9.70;;;8.80;;
19089;SDS011;9677;50.656;13.064;2023-08-06T04:33:58;9.90;;;9.00;;
19089;SDS011;9677;50.656;13.064;2023-08-06T04:36:28;9.90;;;9.00;;
19089;SDS011;9677;50.656;13.064;2023-08-06T04:38:57;9.70;;;8.80;;
19089;SDS011;9677;50.656;13.064;2023-08-06T04:41:25;9.57;;;8.70;;
19089;SDS011;9677;50.656;13.064;2023-08-06T04:43:54;9.60;;;8.70;;
19089;SDS011;9677;50.656;13.064;2023-08-06T04:46:24;9.90;;;9.00;;
19089;SDS011;9677;50.656;13.064;2023-08-06T04:48:52;10.80;;;8.60;;
19089;SDS011;9677;50.656;13.064;2023-08-06T04:51:21;9.37;;;8.50;;
19089;SDS011;9677;50.656;13.064;2023-08-06T04:53:49;9.63;;;8.73;;
19089;SDS011;9677;50.656;13.064;2023-08-06T04:56:17;9.73;;;8.83;;
19089;SDS011;9677;50.656;13.064;2023-08-06T04:58:45;9.83;;;8.93;;
19089;SDS011;9677;50.656;13.064;2023-08-06T05:01:15;9.60;;;8.70;;
19089;SDS011;9677;50.656;13.064;2023-08-06T05:03:43;9.50;;;8.70;;
19089;SDS011;9677;50.656;13.064;2023-08-06T05:06:11;9.60;;;8.70;;
19089;SDS011;9677;50.656;13.064;2023-08-06T05:08:39;9.50;;;8.60;;
19089;SDS011;9677;50.656;13.064;2023-08-06T05:11:08;9.30;;;8.50;;
19089;SDS011;9677;50.656;13.064;2023-08-06T05:13:37;10.03;;;9.03;;
19089;SDS011;9677;50.656;13.064;2023-08-06T05:16:05;9.60;;;8.70;;
19089;SDS011;9677;50.656;13.064;2023-08-06T05:18:35;9.60;;;8.70;;
19089;SDS011;9677;50.656;13.064;2023-08-06T05:21:04;9.50;;;8.60;;
19089;SDS011;9677;50.656;13.064;2023-08-06T05:23:32;9.53;;;8.63;;
19089;SDS011;9677;50.656;13.064;2023-08-06T05:26:00;9.60;;;8.70;;
19089;SDS011;9677;50.656;13.064;2023-08-06T05:28:28;9.30;;;8.40;;
19089;SDS011;9677;50.656;13.064;2023-08-06T05:30:56;9.17;;;8.37;;
19089;SDS011;9677;50.656;13.064;2023-08-06T05:33:25;9.70;;;8.80;;
19089;SDS011;9677;50.656;13.064;2023-08-06T05:35:54;9.60;;;8.70;;
19089;SDS011;9677;50.656;13.064;2023-08-06T05:38:22;9.57;;;8.67;;
19089;SDS011;9677;50.656;13.064;2023-08-06T05:40:50;9.60;;;8.60;;
19089;SDS011;9677;50.656;13.064;2023-08-06T05:43:19;9.67;;;8.77;;
19089;SDS011;9677;50.656;13.064;2023-08-06T05:45:48;9.60;;;8.70;;
19089;SDS011;9677;50.656;13.064;2023-08-06T05:48:17;9.50;;;8.60;;
19089;SDS011;9677;50.656;13.064;2023-08-06T05:50:46;9.73;;;8.83;;
19089;SDS011;9677;50.656;13.064;2023-08-06T05:53:15;9.60;;;8.70;;
19089;SDS011;9677;50.656;13.064;2023-08-06T05:55:44;9.70;;;8.80;;
19089;SDS011;9677;50.656;13.064;2023-08-06T05:58:12;9.50;;;8.60;;
19089;SDS011;9677;50.656;13.064;2023-08-06T06:00:41;9.30;;;8.50;;
19089;SDS011;9677;50.656;13.064;2023-08-06T06:03:09;9.60;;;8.70;;
19089;SDS011;9677;50.656;13.064;2023-08-06T06:05:37;9.27;;;8.47;;
19089;SDS011;9677;50.656;13.064;2023-08-06T06:08:06;9.30;;;8.50;;
19089;SDS011;9677;50.656;13.064;2023-08-06T06:10:36;9.30;;;8.50;;
19089;SDS011;9677;50.656;13.064;2023-08-06T06:13:04;9.50;;;8.60;;
19089;SDS011;9677;50.656;13.064;2023-08-06T06:15:35;9.30;;;8.50;;
19089;SDS011;9677;50.656;13.064;2023-08-06T06:18:04;9.10;;;8.30;;
19089;SDS011;9677;50.656;13.064;2023-08-06T06:20:32;9.20;;;8.40;;
19089;SDS011;9677;50.656;13.064;2023-08-06T06:23:01;9.60;;;8.70;;
19089;SDS011;9677;50.656;13.064;2023-08-06T06:25:29;9.30;;;8.50;;
19089;SDS011;9677;50.656;13.064;2023-08-06T06:27:58;9.70;;;8.80;;
19089;SDS011;9677;50.656;13.064;2023-08-06T06:30:26;9.17;;;8.37;;
19089;SDS011;9677;50.656;13.064;2023-08-06T06:32:55;9.50;;;8.60;;
19089;SDS011;9677;50.656;13.064;2023-08-06T06:35:23;9.43;;;8.60;;
19089;SDS011;9677;50.656;13.064;2023-08-06T06:37:51;9.20;;;8.40;;
19089;SDS011;9677;50.656;13.064;2023-08-06T06:40:20;9.20;;;8.40;;
19089;SDS011;9677;50.656;13.064;2023-08-06T06:42:48;9.20;;;8.40;;
19089;SDS011;9677;50.656;13.064;2023-08-06T06:45:20;9.20;;;8.40;;
19089;SDS011;9677;50.656;13.064;2023-08-06T06:47:48;9.30;;;8.40;;
19089;SDS011;9677;50.656;13.064;2023-08-06T06:50:17;9.40;;;8.50;;
19089;SDS011;9677;50.656;13.064;2023-08-06T06:52:45;9.40;;;8.50;;
19089;SDS011;9677;50.656;13.064;2023-08-06T06:55:13;9.77;;;8.77;;
19089;SDS011;9677;50.656;13.064;2023-08-06T06:57:41;9.37;;;8.40;;
19089;SDS011;9677;50.656;13.064;2023-08-06T07:00:10;9.00;;;8.20;;
19089;SDS011;9677;50.656;13.064;2023-08-06T07:02:40;9.20;;;8.40;;
19089;SDS011;9677;50.656;13.064;2023-08-06T07:05:08;9.20;;;8.40;;
19089;SDS011;9677;50.656;13.064;2023-08-06T07:07:37;9.30;;;8.50;;
19089;SDS011;9677;50.656;13.064;2023-08-06T07:10:05;9.83;;;8.83;;
19089;SDS011;9677;50.656;13.064;2023-08-06T07:12:34;9.00;;;8.20;;
19089;SDS011;9677;50.656;13.064;2023-08-06T07:15:03;9.03;;;8.23;;
19089;SDS011;9677;50.656;13.064;2023-08-06T07:17:33;9.33;;;8.47;;
19089;SDS011;9677;50.656;13.064;2023-08-06T07:20:03;9.10;;;8.27;;
19089;SDS011;9677;50.656;13.064;2023-08-06T07:22:34;9.10;;;8.30;;
19089;SDS011;9677;50.656;13.064;2023-08-06T07:25:02;9.30;;;8.50;;
19089;SDS011;9677;50.656;13.064;2023-08-06T07:27:31;9.30;;;8.40;;
19089;SDS011;9677;50.656;13.064;2023-08-06T07:30:00;9.13;;;8.33;;
19089;SDS011;9677;50.656;13.064;2023-08-06T07:32:28;9.20;;;8.40;;
19089;SDS011;9677;50.656;13.064;2023-08-06T07:34:56;9.20;;;8.40;;
19089;SDS011;9677;50.656;13.064;2023-08-06T07:37:28;9.20;;;8.40;;
19089;SDS011;9677;50.656;13.064;2023-08-06T07:39:56;9.37;;;8.50;;
19089;SDS011;9677;50.656;13.064;2023-08-06T07:42:24;9.03;;;8.23;;
19089;SDS011;9677;50.656;13.064;2023-08-06T07:44:53;9.03;;;8.20;;
19089;SDS011;9677;50.656;13.064;2023-08-06T07:47:23;8.70;;;8.00;;
19089;SDS011;9677;50.656;13.064;2023-08-06T07:49:52;9.20;;;8.40;;
19089;SDS011;9677;50.656;13.064;2023-08-06T07:52:20;9.10;;;8.30;;
19089;SDS011;9677;50.656;13.064;2023-08-06T07:54:49;8.70;;;8.00;;
19089;SDS011;9677;50.656;13.064;2023-08-06T07:57:17;8.70;;;8.00;;
19089;SDS011;9677;50.656;13.064;2023-08-06T07:59:46;8.80;;;8.10;;
19089;SDS011;9677;50.656;13.064;2023-08-06T08:02:14;9.00;;;8.20;;
19089;SDS011;9677;50.656;13.064;2023-08-06T08:04:42;9.10;;;8.30;;
19089;SDS011;9677;50.656;13.064;2023-08-06T08:07:13;8.90;;;8.10;;
19089;SDS011;9677;50.656;13.064;2023-08-06T08:09:41;9.30;;;8.40;;
19089;SDS011;9677;50.656;13.064;2023-08-06T08:12:11;9.00;;;8.20;;
19089;SDS011;9677;50.656;13.064;2023-08-06T08:14:39;9.43;;;8.60;;
19089;SDS011;9677;50.656;13.064;2023-08-06T08:17:07;9.00;;;8.20;;
19089;SDS011;9677;50.656;13.064;2023-08-06T08:19:35;9.13;;;8.33;;
19089;SDS011;9677;50.656;13.064;2023-08-06T08:22:04;9.10;;;8.30;;
19089;SDS011;9677;50.656;13.064;2023-08-06T08:24:32;9.00;;;8.20;;
19089;SDS011;9677;50.656;13.064;2023-08-06T08:27:00;8.90;;;8.10;;
19089;SDS011;9677;50.656;13.064;2023-08-06T08:29:29;9.20;;;8.40;;
19089;SDS011;9677;50.656;13.064;2023-08-06T08:31:58;8.90;;;8.10;;
19089;SDS011;9677;50.656;13.064;2023-08-06T08:34:26;9.20;;;8.30;;
19089;SDS011;9677;50.656;13.064;2023-08-06T08:36:54;9.10;;;8.30;;
19089;SDS011;9677;50.656;13.064;2023-08-06T08:39:22;9.17;;;8.37;;
19089;SDS011;9677;50.656;13.064;2023-08-06T08:41:50;9.00;;;8.20;;
19089;SDS011;9677;50.656;13.064;2023-08-06T08:44:20;8.80;;;8.00;;
19089;SDS011;9677;50.656;13.064;2023-08-06T08:46:51;9.07;;;8.17;;
19089;SDS011;9677;50.656;13.064;2023-08-06T08:49:19;9.20;;;8.30;;
19089;SDS011;9677;50.656;13.064;2023-08-06T08:51:51;9.10;;;8.30;;
19089;SDS011;9677;50.656;13.064;2023-08-06T08:54:21;9.17;;;8.37;;
19089;SDS011;9677;50.656;13.064;2023-08-06T08:56:50;12.30;;;8.40;;
19089;SDS011;9677;50.656;13.064;2023-08-06T08:59:19;9.17;;;8.37;;
19089;SDS011;9677;50.656;13.064;2023-08-06T09:01:48;9.20;;;8.40;;
19089;SDS011;9677;50.656;13.064;2023-08-06T09:04:20;8.77;;;8.00;;
19089;SDS011;9677;50.656;13.064;2023-08-06T09:06:50;8.90;;;8.10;;
19089;SDS011;9677;50.656;13.064;2023-08-06T09:09:20;8.90;;;8.17;;
19089;SDS011;9677;50.656;13.064;2023-08-06T09:11:55;9.00;;;8.20;;
19089;SDS011;9677;50.656;13.064;2023-08-06T09:14:28;9.00;;;8.20;;
19089;SDS011;9677;50.656;13.064;2023-08-06T09:16:57;8.57;;;7.87;;
19089;SDS011;9677;50.656;13.064;2023-08-06T09:19:26;9.10;;;8.30;;
19089;SDS011;9677;50.656;13.064;2023-08-06T09:21:55;9.23;;;8.43;;
19089;SDS011;9677;50.656;13.064;2023-08-06T09:24:23;9.40;;;8.50;;
19089;SDS011;9677;50.656;13.064;2023-08-06T09:26:52;9.40;;;8.50;;
19089;SDS011;9677;50.656;13.064;2023-08-06T09:29:21;9.37;;;8.50;;
19089;SDS011;9677;50.656;13.064;2023-08-06T09:31:49;9.27;;;8.47;;
19089;SDS011;9677;50.656;13.064;2023-08-06T09:34:21;9.03;;;8.23;;
19089;SDS011;9677;50.656;13.064;2023-08-06T09:36:50;9.30;;;8.50;;
19089;SDS011;9677;50.656;13.064;2023-08-06T09:39:20;8.90;;;8.10;;
19089;SDS011;9677;50.656;13.064;2023-08-06T09:41:55;9.40;;;8.50;;
19089;SDS011;9677;50.656;13.064;2023-08-06T09:44:25;9.10;;;8.30;;
19089;SDS011;9677;50.656;13.064;2023-08-06T09:46:55;9.10;;;8.30;;
19089;SDS011;9677;50.656;13.064;2023-08-06T09:49:26;9.30;;;8.50;;
19089;SDS011;9677;50.656;13.064;2023-08-06T09:51:56;8.80;;;8.00;;
19089;SDS011;9677;50.656;13.064;2023-08-06T09:54:26;8.90;;;8.10;;
19089;SDS011;9677;50.656;13.064;2023-08-06T09:56:56;9.23;;;8.33;;
19089;SDS011;9677;50.656;13.064;2023-08-06T09:59:25;9.00;;;8.20;;
19089;SDS011;9677;50.656;13.064;2023-08-06T10:01:54;8.97;;;8.17;;
19089;SDS011;9677;50.656;13.064;2023-08-06T10:04:23;9.00;;;8.20;;
19089;SDS011;9677;50.656;13.064;2023-08-06T10:07:06;9.10;;;8.30;;
19089;SDS011;9677;50.656;13.064;2023-08-06T10:09:34;9.00;;;8.20;;
19089;SDS011;9677;50.656;13.064;2023-08-06T10:12:03;9.10;;;8.30;;
19089;SDS011;9677;50.656;13.064;2023-08-06T10:14:33;9.30;;;8.40;;
19089;SDS011;9677;50.656;13.064;2023-08-06T10:17:04;9.47;;;8.57;;
19089;SDS011;9677;50.656;13.064;2023-08-06T10:19:34;9.47;;;8.57;;
19089;SDS011;9677;50.656;13.064;2023-08-06T10:22:10;9.00;;;8.20;;
19089;SDS011;9677;50.656;13.064;2023-08-06T10:24:46;9.20;;;8.40;;
19089;SDS011;9677;50.656;13.064;2023-08-06T10:27:19;8.87;;;8.07;;
19089;SDS011;9677;50.656;13.064;2023-08-06T10:29:55;10.80;;;8.30;;
19089;SDS011;9677;50.656;13.064;2023-08-06T10:35:29;9.10;;;8.30;;
19089;SDS011;9677;50.656;13.064;2023-08-06T10:37:59;9.67;;;8.77;;
19089;SDS011;9677;50.656;13.064;2023-08-06T10:40:31;9.10;;;8.30;;
19089;SDS011;9677;50.656;13.064;2023-08-06T10:43:00;9.47;;;8.57;;
19089;SDS011;9677;50.656;13.064;2023-08-06T10:45:29;8.97;;;8.17;;
19089;SDS011;9677;50.656;13.064;2023-08-06T10:47:57;9.00;;;8.20;;
19089;SDS011;9677;50.656;13.064;2023-08-06T10:50:26;9.20;;;8.30;;
19089;SDS011;9677;50.656;13.064;2023-08-06T10:52:55;9.03;;;8.23;;
19089;SDS011;9677;50.656;13.064;2023-08-06T10:55:24;9.03;;;8.23;;
19089;SDS011;9677;50.656;13.064;2023-08-06T10:57:54;9.00;;;8.20;;
19089;SDS011;9677;50.656;13.064;2023-08-06T11:00:23;9.13;;;8.33;;
19089;SDS011;9677;50.656;13.064;2023-08-06T11:02:52;9.20;;;8.37;;
19089;SDS011;9677;50.656;13.064;2023-08-06T11:05:22;9.20;;;8.20;;
19089;SDS011;9677;50.656;13.064;2023-08-06T11:07:50;8.70;;;8.00;;
19089;SDS011;9677;50.656;13.064;2023-08-06T11:10:20;9.70;;;8.70;;
19089;SDS011;9677;50.656;13.064;2023-08-06T11:12:48;9.23;;;8.40;;
19089;SDS011;9677;50.656;13.064;2023-08-06T11:15:16;9.30;;;8.50;;
19089;SDS011;9677;50.656;13.064;2023-08-06T11:17:47;9.30;;;8.40;;
19089;SDS011;9677;50.656;13.064;2023-08-06T11:20:15;9.20;;;8.40;;
19089;SDS011;9677;50.656;13.064;2023-08-06T11:22:44;9.00;;;8.20;;
19089;SDS011;9677;50.656;13.064;2023-08-06T11:25:12;8.87;;;8.07;;
19089;SDS011;9677;50.656;13.064;2023-08-06T11:27:41;9.40;;;8.40;;
19089;SDS011;9677;50.656;13.064;2023-08-06T11:30:10;9.23;;;8.43;;
19089;SDS011;9677;50.656;13.064;2023-08-06T11:32:45;9.23;;;8.43;;
19089;SDS011;9677;50.656;13.064;2023-08-06T11:35:14;9.00;;;8.20;;
19089;SDS011;9677;50.656;13.064;2023-08-06T11:37:43;8.80;;;8.10;;
19089;SDS011;9677;50.656;13.064;2023-08-06T11:40:14;8.90;;;8.10;;
19089;SDS011;9677;50.656;13.064;2023-08-06T11:42:44;9.10;;;8.30;;
19089;SDS011;9677;50.656;13.064;2023-08-06T11:45:14;8.77;;;7.97;;
19089;SDS011;9677;50.656;13.064;2023-08-06T11:47:42;9.00;;;8.20;;
19089;SDS011;9677;50.656;13.064;2023-08-06T11:50:21;8.93;;;8.13;;
19089;SDS011;9677;50.656;13.064;2023-08-06T11:52:52;8.57;;;7.87;;
19089;SDS011;9677;50.656;13.064;2023-08-06T11:55:23;8.70;;;8.00;;
19089;SDS011;9677;50.656;13.064;2023-08-06T11:57:53;9.00;;;8.20;;
19089;SDS011;9677;50.656;13.064;2023-08-06T12:00:22;8.90;;;8.10;;
19089;SDS011;9677;50.656;13.064;2023-08-06T12:02:52;8.60;;;7.80;;
19089;SDS011;9677;50.656;13.064;2023-08-06T12:05:22;8.83;;;8.07;;
19089;SDS011;9677;50.656;13.064;2023-08-06T12:07:51;9.17;;;8.37;;
19089;SDS011;9677;50.656;13.064;2023-08-06T12:10:23;9.10;;;8.30;;
19089;SDS011;9677;50.656;13.064;2023-08-06T12:12:54;9.27;;;8.40;;
19089;SDS011;9677;50.656;13.064;2023-08-06T12:15:23;9.40;;;8.50;;
19089;SDS011;9677;50.656;13.064;2023-08-06T12:17:51;8.90;;;8.10;;
19089;SDS011;9677;50.656;13.064;2023-08-06T12:20:20;8.73;;;7.93;;
19089;SDS011;9677;50.656;13.064;2023-08-06T12:22:48;8.90;;;8.10;;
19089;SDS011;9677;50.656;13.064;2023-08-06T12:25:16;8.70;;;7.90;;
19089;SDS011;9677;50.656;13.064;2023-08-06T12:27:46;9.00;;;8.20;;
19089;SDS011;9677;50.656;13.064;2023-08-06T12:30:15;8.90;;;8.10;;
19089;SDS011;9677;50.656;13.064;2023-08-06T12:32:44;8.90;;;8.10;;
19089;SDS011;9677;50.656;13.064;2023-08-06T12:35:12;8.67;;;7.87;;
19089;SDS011;9677;50.656;13.064;2023-08-06T12:37:41;8.50;;;7.70;;
19089;SDS011;9677;50.656;13.064;2023-08-06T12:40:10;8.80;;;8.03;;
19089;SDS011;9677;50.656;13.064;2023-08-06T12:42:41;9.10;;;8.20;;
19089;SDS011;9677;50.656;13.064;2023-08-06T12:45:09;8.90;;;8.10;;
19089;SDS011;9677;50.656;13.064;2023-08-06T12:47:39;8.90;;;8.10;;
19089;SDS011;9677;50.656;13.064;2023-08-06T12:50:08;8.90;;;8.10;;
19089;SDS011;9677;50.656;13.064;2023-08-06T12:52:37;8.90;;;8.10;;
19089;SDS011;9677;50.656;13.064;2023-08-06T12:55:05;8.77;;;7.97;;
19089;SDS011;9677;50.656;13.064;2023-08-06T12:57:34;9.00;;;8.20;;
19089;SDS011;9677;50.656;13.064;2023-08-06T13:00:22;8.90;;;8.10;;
19089;SDS011;9677;50.656;13.064;2023-08-06T13:02:52;8.97;;;8.17;;
19089;SDS011;9677;50.656;13.064;2023-08-06T13:05:20;8.80;;;8.00;;
19089;SDS011;9677;50.656;13.064;2023-08-06T13:07:49;8.90;;;8.10;;
19089;SDS011;9677;50.656;13.064;2023-08-06T13:10:17;8.90;;;8.10;;
19089;SDS011;9677;50.656;13.064;2023-08-06T13:12:47;8.87;;;8.07;;
19089;SDS011;9677;50.656;13.064;2023-08-06T13:15:15;8.53;;;7.83;;
19089;SDS011;9677;50.656;13.064;2023-08-06T13:17:46;8.93;;;8.13;;
19089;SDS011;9677;50.656;13.064;2023-08-06T13:20:15;8.90;;;8.10;;
19089;SDS011;9677;50.656;13.064;2023-08-06T13:22:46;8.80;;;8.00;;
19089;SDS011;9677;50.656;13.064;2023-08-06T13:25:17;9.07;;;8.27;;
19089;SDS011;9677;50.656;13.064;2023-08-06T13:27:46;8.90;;;8.10;;
19089;SDS011;9677;50.656;13.064;2023-08-06T13:30:15;8.70;;;7.93;;
19089;SDS011;9677;50.656;13.064;2023-08-06T13:32:45;8.73;;;7.93;;
19089;SDS011;9677;50.656;13.064;2023-08-06T13:35:13;8.83;;;8.03;;
19089;SDS011;9677;50.656;13.064;2023-08-06T13:37:43;8.97;;;8.17;;
19089;SDS011;9677;50.656;13.064;2023-08-06T13:40:11;8.70;;;8.00;;
19089;SDS011;9677;50.656;13.064;2023-08-06T13:42:39;8.40;;;7.70;;
19089;SDS011;9677;50.656;13.064;2023-08-06T13:45:08;8.80;;;8.03;;
19089;SDS011;9677;50.656;13.064;2023-08-06T13:47:37;9.03;;;8.13;;
19089;SDS011;9677;50.656;13.064;2023-08-06T13:50:05;8.80;;;8.00;;
19089;SDS011;9677;50.656;13.064;2023-08-06T13:52:35;8.60;;;7.80;;
19089;SDS011;9677;50.656;13.064;2023-08-06T13:55:04;8.70;;;7.90;;
19089;SDS011;9677;50.656;13.064;2023-08-06T13:57:33;8.80;;;8.00;;
19089;SDS011;9677;50.656;13.064;2023-08-06T14:00:02;8.83;;;8.03;;
19089;SDS011;9677;50.656;13.064;2023-08-06T14:02:38;9.73;;;7.80;;
19089;SDS011;9677;50.656;13.064;2023-08-06T14:05:06;8.80;;;8.00;;
19089;SDS011;9677;50.656;13.064;2023-08-06T14:07:36;8.83;;;8.03;;
19089;SDS011;9677;50.656;13.064;2023-08-06T14:10:05;8.80;;;8.00;;
19089;SDS011;9677;50.656;13.064;2023-08-06T14:12:35;8.70;;;7.90;;
19089;SDS011;9677;50.656;13.064;2023-08-06T14:15:04;8.90;;;8.10;;
19089;SDS011;9677;50.656;13.064;2023-08-06T14:17:33;8.70;;;7.90;;
19089;SDS011;9677;50.656;13.064;2023-08-06T14:20:01;8.70;;;7.90;;
19089;SDS011;9677;50.656;13.064;2023-08-06T14:22:30;8.97;;;8.17;;
19089;SDS011;9677;50.656;13.064;2023-08-06T14:25:00;8.63;;;7.83;;
19089;SDS011;9677;50.656;13.064;2023-08-06T14:27:28;8.67;;;7.87;;
19089;SDS011;9677;50.656;13.064;2023-08-06T14:29:56;8.97;;;8.07;;
19089;SDS011;9677;50.656;13.064;2023-08-06T14:32:24;8.40;;;7.70;;
19089;SDS011;9677;50.656;13.064;2023-08-06T14:34:53;8.60;;;7.80;;
19089;SDS011;9677;50.656;13.064;2023-08-06T14:37:21;8.70;;;7.97;;
19089;SDS011;9677;50.656;13.064;2023-08-06T14:39:49;8.70;;;7.90;;
19089;SDS011;9677;50.656;13.064;2023-08-06T14:42:19;8.90;;;8.10;;
19089;SDS011;9677;50.656;13.064;2023-08-06T14:44:48;8.70;;;7.90;;
19089;SDS011;9677;50.656;13.064;2023-08-06T14:47:16;8.50;;;7.80;;
19089;SDS011;9677;50.656;13.064;2023-08-06T14:49:45;8.70;;;7.90;;
19089;SDS011;9677;50.656;13.064;2023-08-06T14:52:14;8.60;;;7.80;;
19089;SDS011;9677;50.656;13.064;2023-08-06T14:54:42;9.27;;;8.30;;
19089;SDS011;9677;50.656;13.064;2023-08-06T14:57:11;8.77;;;7.87;;
19089;SDS011;9677;50.656;13.064;2023-08-06T14:59:41;9.07;;;8.27;;
19089;SDS011;9677;50.656;13.064;2023-08-06T15:02:09;8.90;;;8.10;;
19089;SDS011;9677;50.656;13.064;2023-08-06T15:04:38;8.60;;;7.90;;